sensor_id;sensor_type;location;lat;lon;timestamp;temperature;humidity
74081;SHT31;62438;52.228;6.864;2023-03-24T00:02:06;11.28;96.18
74081;SHT31;62438;52.228;6.864;2023-03-24T00:04:16;11.32;96.08
74081;SHT31;62438;52.228;6.864;2023-03-24T00:06:34;11.26;96.67
74081;SHT31;62438;52.228;6.864;2023-03-24T00:08:39;11.30;96.32
74081;SHT31;62438;52.228;6.864;2023-03-24T00:13:53;11.31;96.80
74081;SHT31;62438;52.228;6.864;2023-03-24T00:24:50;11.34;97.05
74081;SHT31;62438;52.228;6.864;2023-03-24T00:26:50;11.34;96.87
74081;SHT31;62438;52.228;6.864;2023-03-24T00:28:51;11.31;97.38
74081;SHT31;62438;52.228;6.864;2023-03-24T00:30:52;11.34;97.23
74081;SHT31;62438;52.228;6.864;2023-03-24T00:32:54;11.37;96.87
74081;SHT31;62438;52.228;6.864;2023-03-24T00:34:54;11.37;97.00
74081;SHT31;62438;52.228;6.864;2023-03-24T00:36:58;11.38;97.18
74081;SHT31;62438;52.228;6.864;2023-03-24T00:38:58;11.45;96.50
74081;SHT31;62438;52.228;6.864;2023-03-24T00:41:00;11.45;96.81
74081;SHT31;62438;52.228;6.864;2023-03-24T00:43:01;11.42;96.96
74081;SHT31;62438;52.228;6.864;2023-03-24T00:45:04;11.45;96.64
74081;SHT31;62438;52.228;6.864;2023-03-24T00:47:07;11.39;97.24
74081;SHT31;62438;52.228;6.864;2023-03-24T00:55:22;11.45;96.93
74081;SHT31;62438;52.228;6.864;2023-03-24T00:57:23;11.41;97.07
74081;SHT31;62438;52.228;6.864;2023-03-24T00:59:46;11.42;96.93
74081;SHT31;62438;52.228;6.864;2023-03-24T01:01:48;11.45;96.92
74081;SHT31;62438;52.228;6.864;2023-03-24T01:03:48;11.38;97.48
74081;SHT31;62438;52.228;6.864;2023-03-24T01:05:49;11.51;96.76
74081;SHT31;62438;52.228;6.864;2023-03-24T01:07:50;11.50;96.90
74081;SHT31;62438;52.228;6.864;2023-03-24T01:10:01;11.52;97.01
74081;SHT31;62438;52.228;6.864;2023-03-24T01:12:10;11.47;97.21
74081;SHT31;62438;52.228;6.864;2023-03-24T01:17:13;11.41;97.98
74081;SHT31;62438;52.228;6.864;2023-03-24T01:19:16;11.38;98.26
74081;SHT31;62438;52.228;6.864;2023-03-24T01:21:19;11.42;98.10
74081;SHT31;62438;52.228;6.864;2023-03-24T01:23:23;11.44;98.10
74081;SHT31;62438;52.228;6.864;2023-03-24T01:25:24;11.47;97.79
74081;SHT31;62438;52.228;6.864;2023-03-24T01:27:26;11.47;98.01
74081;SHT31;62438;52.228;6.864;2023-03-24T01:29:30;11.58;97.20
74081;SHT31;62438;52.228;6.864;2023-03-24T01:32:18;11.59;97.28
74081;SHT31;62438;52.228;6.864;2023-03-24T01:34:49;11.59;97.17
74081;SHT31;62438;52.228;6.864;2023-03-24T01:37:24;11.64;97.03
74081;SHT31;62438;52.228;6.864;2023-03-24T01:42:39;11.62;97.40
74081;SHT31;62438;52.228;6.864;2023-03-24T01:44:40;11.71;96.78
74081;SHT31;62438;52.228;6.864;2023-03-24T01:46:41;11.69;97.14
74081;SHT31;62438;52.228;6.864;2023-03-24T01:48:54;11.78;96.49
74081;SHT31;62438;52.228;6.864;2023-03-24T01:51:03;11.76;96.87
74081;SHT31;62438;52.228;6.864;2023-03-24T01:53:06;11.76;96.88
74081;SHT31;62438;52.228;6.864;2023-03-24T01:55:11;11.85;96.44
74081;SHT31;62438;52.228;6.864;2023-03-24T01:57:21;11.75;97.03
74081;SHT31;62438;52.228;6.864;2023-03-24T01:59:26;11.76;96.69
74081;SHT31;62438;52.228;6.864;2023-03-24T02:01:29;11.82;96.76
74081;SHT31;62438;52.228;6.864;2023-03-24T02:03:30;11.81;96.79
74081;SHT31;62438;52.228;6.864;2023-03-24T02:05:37;11.79;97.07
74081;SHT31;62438;52.228;6.864;2023-03-24T02:08:09;11.79;96.89
74081;SHT31;62438;52.228;6.864;2023-03-24T02:10:15;11.83;96.78
74081;SHT31;62438;52.228;6.864;2023-03-24T02:12:16;11.83;96.44
74081;SHT31;62438;52.228;6.864;2023-03-24T02:14:17;11.79;96.92
74081;SHT31;62438;52.228;6.864;2023-03-24T02:21:09;11.86;96.54
74081;SHT31;62438;52.228;6.864;2023-03-24T02:35:19;11.96;96.30
74081;SHT31;62438;52.228;6.864;2023-03-24T02:39:50;11.93;96.90
74081;SHT31;62438;52.228;6.864;2023-03-24T02:44:41;11.89;97.20
74081;SHT31;62438;52.228;6.864;2023-03-24T02:46:55;11.89;97.25
74081;SHT31;62438;52.228;6.864;2023-03-24T02:51:12;11.92;97.31
74081;SHT31;62438;52.228;6.864;2023-03-24T02:53:37;11.92;97.38
74081;SHT31;62438;52.228;6.864;2023-03-24T02:55:59;11.93;97.63
74081;SHT31;62438;52.228;6.864;2023-03-24T02:58:20;11.93;97.26
74081;SHT31;62438;52.228;6.864;2023-03-24T03:00:31;11.90;97.77
74081;SHT31;62438;52.228;6.864;2023-03-24T03:02:40;11.97;97.36
74081;SHT31;62438;52.228;6.864;2023-03-24T03:05:08;11.93;97.64
74081;SHT31;62438;52.228;6.864;2023-03-24T03:07:13;11.96;97.66
74081;SHT31;62438;52.228;6.864;2023-03-24T03:09:17;11.95;97.74
74081;SHT31;62438;52.228;6.864;2023-03-24T03:11:18;11.97;97.58
74081;SHT31;62438;52.228;6.864;2023-03-24T03:13:23;12.00;97.64
74081;SHT31;62438;52.228;6.864;2023-03-24T03:15:31;12.03;97.19
74081;SHT31;62438;52.228;6.864;2023-03-24T03:17:38;12.00;97.59
74081;SHT31;62438;52.228;6.864;2023-03-24T03:19:42;12.02;97.95
74081;SHT31;62438;52.228;6.864;2023-03-24T03:21:45;11.96;98.39
74081;SHT31;62438;52.228;6.864;2023-03-24T03:23:55;12.02;98.09
74081;SHT31;62438;52.228;6.864;2023-03-24T03:26:00;11.95;98.43
74081;SHT31;62438;52.228;6.864;2023-03-24T03:28:05;11.95;98.60
74081;SHT31;62438;52.228;6.864;2023-03-24T03:30:13;11.99;98.30
74081;SHT31;62438;52.228;6.864;2023-03-24T03:32:21;12.03;98.05
74081;SHT31;62438;52.228;6.864;2023-03-24T03:36:44;12.03;98.01
74081;SHT31;62438;52.228;6.864;2023-03-24T03:39:11;12.06;98.03
74081;SHT31;62438;52.228;6.864;2023-03-24T03:41:15;12.06;97.97
74081;SHT31;62438;52.228;6.864;2023-03-24T03:43:17;12.12;97.29
74081;SHT31;62438;52.228;6.864;2023-03-24T03:45:18;12.15;97.10
74081;SHT31;62438;52.228;6.864;2023-03-24T03:47:19;12.20;96.88
74081;SHT31;62438;52.228;6.864;2023-03-24T03:49:22;12.30;95.88
74081;SHT31;62438;52.228;6.864;2023-03-24T03:51:22;12.32;95.28
74081;SHT31;62438;52.228;6.864;2023-03-24T03:53:27;12.34;95.31
74081;SHT31;62438;52.228;6.864;2023-03-24T03:55:31;12.34;95.48
74081;SHT31;62438;52.228;6.864;2023-03-24T03:57:34;12.33;95.44
74081;SHT31;62438;52.228;6.864;2023-03-24T03:59:36;12.25;96.62
74081;SHT31;62438;52.228;6.864;2023-03-24T04:01:37;12.15;97.13
74081;SHT31;62438;52.228;6.864;2023-03-24T04:06:02;12.13;97.36
74081;SHT31;62438;52.228;6.864;2023-03-24T04:10:23;12.17;96.88
74081;SHT31;62438;52.228;6.864;2023-03-24T04:22:41;11.96;95.87
74081;SHT31;62438;52.228;6.864;2023-03-24T04:26:56;11.86;94.46
74081;SHT31;62438;52.228;6.864;2023-03-24T04:29:06;11.83;94.03
74081;SHT31;62438;52.228;6.864;2023-03-24T04:31:17;11.79;93.84
74081;SHT31;62438;52.228;6.864;2023-03-24T04:34:03;11.72;93.65
74081;SHT31;62438;52.228;6.864;2023-03-24T04:36:02;11.71;93.40
74081;SHT31;62438;52.228;6.864;2023-03-24T04:38:12;11.59;93.25
74081;SHT31;62438;52.228;6.864;2023-03-24T04:40:16;11.50;93.56
74081;SHT31;62438;52.228;6.864;2023-03-24T04:42:24;11.45;92.78
74081;SHT31;62438;52.228;6.864;2023-03-24T04:44:26;11.35;93.04
74081;SHT31;62438;52.228;6.864;2023-03-24T04:46:29;11.26;92.97
74081;SHT31;62438;52.228;6.864;2023-03-24T04:48:30;11.20;93.14
74081;SHT31;62438;52.228;6.864;2023-03-24T04:50:38;11.04;93.64
74081;SHT31;62438;52.228;6.864;2023-03-24T04:52:40;11.03;93.35
74081;SHT31;62438;52.228;6.864;2023-03-24T04:54:41;10.96;93.44
74081;SHT31;62438;52.228;6.864;2023-03-24T04:56:50;10.88;93.24
74081;SHT31;62438;52.228;6.864;2023-03-24T04:58:51;10.76;93.42
74081;SHT31;62438;52.228;6.864;2023-03-24T05:00:52;10.69;93.70
74081;SHT31;62438;52.228;6.864;2023-03-24T05:02:54;10.68;93.75
74081;SHT31;62438;52.228;6.864;2023-03-24T05:04:54;10.65;94.27
74081;SHT31;62438;52.228;6.864;2023-03-24T05:06:55;10.65;94.52
74081;SHT31;62438;52.228;6.864;2023-03-24T05:08:56;10.69;94.14
74081;SHT31;62438;52.228;6.864;2023-03-24T05:10:58;10.69;94.00
74081;SHT31;62438;52.228;6.864;2023-03-24T05:12:58;10.66;93.59
74081;SHT31;62438;52.228;6.864;2023-03-24T05:14:59;10.66;93.27
74081;SHT31;62438;52.228;6.864;2023-03-24T05:17:00;10.62;92.86
74081;SHT31;62438;52.228;6.864;2023-03-24T05:19:01;10.52;93.20
74081;SHT31;62438;52.228;6.864;2023-03-24T05:21:02;10.44;92.55
74081;SHT31;62438;52.228;6.864;2023-03-24T05:23:02;10.45;90.82
74081;SHT31;62438;52.228;6.864;2023-03-24T05:25:03;10.37;91.07
74081;SHT31;62438;52.228;6.864;2023-03-24T05:27:04;10.24;91.65
74081;SHT31;62438;52.228;6.864;2023-03-24T05:29:04;10.17;91.95
74081;SHT31;62438;52.228;6.864;2023-03-24T05:31:05;10.12;91.49
74081;SHT31;62438;52.228;6.864;2023-03-24T05:33:05;10.08;92.12
74081;SHT31;62438;52.228;6.864;2023-03-24T05:35:06;10.07;91.91
74081;SHT31;62438;52.228;6.864;2023-03-24T05:37:07;10.11;91.69
74081;SHT31;62438;52.228;6.864;2023-03-24T05:39:11;10.20;90.70
74081;SHT31;62438;52.228;6.864;2023-03-24T05:41:11;10.24;90.61
74081;SHT31;62438;52.228;6.864;2023-03-24T05:43:12;10.21;91.27
74081;SHT31;62438;52.228;6.864;2023-03-24T05:45:12;10.20;91.09
74081;SHT31;62438;52.228;6.864;2023-03-24T05:47:13;10.27;90.31
74081;SHT31;62438;52.228;6.864;2023-03-24T05:49:15;10.25;90.49
74081;SHT31;62438;52.228;6.864;2023-03-24T05:51:15;10.15;90.99
74081;SHT31;62438;52.228;6.864;2023-03-24T05:53:16;10.21;91.20
74081;SHT31;62438;52.228;6.864;2023-03-24T05:55:16;10.21;90.96
74081;SHT31;62438;52.228;6.864;2023-03-24T05:57:19;10.22;89.92
74081;SHT31;62438;52.228;6.864;2023-03-24T05:59:19;10.21;90.44
74081;SHT31;62438;52.228;6.864;2023-03-24T06:01:20;10.20;90.71
74081;SHT31;62438;52.228;6.864;2023-03-24T06:03:20;10.18;90.77
74081;SHT31;62438;52.228;6.864;2023-03-24T06:05:21;10.20;90.47
74081;SHT31;62438;52.228;6.864;2023-03-24T06:07:22;10.18;90.37
74081;SHT31;62438;52.228;6.864;2023-03-24T06:09:26;10.17;90.71
74081;SHT31;62438;52.228;6.864;2023-03-24T06:11:31;10.15;91.04
74081;SHT31;62438;52.228;6.864;2023-03-24T06:13:32;10.21;90.69
74081;SHT31;62438;52.228;6.864;2023-03-24T06:15:32;10.22;90.66
74081;SHT31;62438;52.228;6.864;2023-03-24T06:17:33;10.28;89.82
74081;SHT31;62438;52.228;6.864;2023-03-24T06:19:33;10.28;89.56
74081;SHT31;62438;52.228;6.864;2023-03-24T06:21:37;10.27;89.70
74081;SHT31;62438;52.228;6.864;2023-03-24T06:23:37;10.24;89.37
74081;SHT31;62438;52.228;6.864;2023-03-24T06:25:38;10.24;88.94
74081;SHT31;62438;52.228;6.864;2023-03-24T06:27:44;10.22;88.38
74081;SHT31;62438;52.228;6.864;2023-03-24T06:29:47;10.21;88.47
74081;SHT31;62438;52.228;6.864;2023-03-24T06:31:47;10.22;88.00
74081;SHT31;62438;52.228;6.864;2023-03-24T06:33:51;10.22;87.71
74081;SHT31;62438;52.228;6.864;2023-03-24T06:35:52;10.22;87.24
74081;SHT31;62438;52.228;6.864;2023-03-24T06:37:52;10.18;87.98
74081;SHT31;62438;52.228;6.864;2023-03-24T06:39:53;10.22;88.05
74081;SHT31;62438;52.228;6.864;2023-03-24T06:41:53;10.22;88.31
74081;SHT31;62438;52.228;6.864;2023-03-24T06:43:53;10.21;88.74
74081;SHT31;62438;52.228;6.864;2023-03-24T06:45:54;10.28;88.09
74081;SHT31;62438;52.228;6.864;2023-03-24T06:47:55;10.31;87.72
74081;SHT31;62438;52.228;6.864;2023-03-24T06:49:55;10.32;88.28
74081;SHT31;62438;52.228;6.864;2023-03-24T06:51:56;10.37;87.44
74081;SHT31;62438;52.228;6.864;2023-03-24T06:53:56;10.37;87.93
74081;SHT31;62438;52.228;6.864;2023-03-24T06:55:57;10.34;88.05
74081;SHT31;62438;52.228;6.864;2023-03-24T06:57:57;10.34;88.19
74081;SHT31;62438;52.228;6.864;2023-03-24T06:59:58;10.37;87.74
74081;SHT31;62438;52.228;6.864;2023-03-24T07:01:58;10.39;88.43
74081;SHT31;62438;52.228;6.864;2023-03-24T07:04:01;10.39;88.08
74081;SHT31;62438;52.228;6.864;2023-03-24T07:06:01;10.41;88.27
74081;SHT31;62438;52.228;6.864;2023-03-24T07:08:02;10.48;88.14
74081;SHT31;62438;52.228;6.864;2023-03-24T07:10:03;10.53;87.78
74081;SHT31;62438;52.228;6.864;2023-03-24T07:12:05;10.53;88.07
74081;SHT31;62438;52.228;6.864;2023-03-24T07:14:05;10.51;86.95
74081;SHT31;62438;52.228;6.864;2023-03-24T07:16:06;10.49;88.04
74081;SHT31;62438;52.228;6.864;2023-03-24T07:18:07;10.48;86.93
74081;SHT31;62438;52.228;6.864;2023-03-24T07:20:07;10.49;87.39
74081;SHT31;62438;52.228;6.864;2023-03-24T07:22:08;10.44;88.03
74081;SHT31;62438;52.228;6.864;2023-03-24T07:24:09;10.55;87.23
74081;SHT31;62438;52.228;6.864;2023-03-24T07:26:09;10.55;87.11
74081;SHT31;62438;52.228;6.864;2023-03-24T07:28:10;10.55;87.49
74081;SHT31;62438;52.228;6.864;2023-03-24T07:30:11;10.55;86.58
74081;SHT31;62438;52.228;6.864;2023-03-24T07:32:12;10.58;86.66
74081;SHT31;62438;52.228;6.864;2023-03-24T07:34:12;10.59;86.89
74081;SHT31;62438;52.228;6.864;2023-03-24T07:36:12;10.59;86.69
74081;SHT31;62438;52.228;6.864;2023-03-24T07:38:13;10.60;87.08
74081;SHT31;62438;52.228;6.864;2023-03-24T07:40:14;10.65;86.94
74081;SHT31;62438;52.228;6.864;2023-03-24T07:42:15;10.69;86.44
74081;SHT31;62438;52.228;6.864;2023-03-24T07:44:16;10.72;85.85
74081;SHT31;62438;52.228;6.864;2023-03-24T07:46:16;10.80;85.49
74081;SHT31;62438;52.228;6.864;2023-03-24T07:48:16;10.79;85.82
74081;SHT31;62438;52.228;6.864;2023-03-24T07:50:17;10.79;85.64
74081;SHT31;62438;52.228;6.864;2023-03-24T07:52:17;10.89;84.92
74081;SHT31;62438;52.228;6.864;2023-03-24T07:54:18;10.92;84.41
74081;SHT31;62438;52.228;6.864;2023-03-24T07:56:18;10.92;85.08
74081;SHT31;62438;52.228;6.864;2023-03-24T07:58:18;11.07;84.79
74081;SHT31;62438;52.228;6.864;2023-03-24T08:00:19;11.13;84.83
74081;SHT31;62438;52.228;6.864;2023-03-24T08:02:20;11.13;84.85
74081;SHT31;62438;52.228;6.864;2023-03-24T08:04:21;11.24;84.66
74081;SHT31;62438;52.228;6.864;2023-03-24T08:06:21;11.30;84.22
74081;SHT31;62438;52.228;6.864;2023-03-24T08:08:21;11.35;82.99
74081;SHT31;62438;52.228;6.864;2023-03-24T08:10:26;11.41;84.35
74081;SHT31;62438;52.228;6.864;2023-03-24T08:12:27;11.44;83.92
74081;SHT31;62438;52.228;6.864;2023-03-24T08:14:28;11.45;83.31
74081;SHT31;62438;52.228;6.864;2023-03-24T08:16:28;11.39;83.32
74081;SHT31;62438;52.228;6.864;2023-03-24T08:18:29;11.58;82.23
74081;SHT31;62438;52.228;6.864;2023-03-24T08:20:34;11.65;81.78
74081;SHT31;62438;52.228;6.864;2023-03-24T08:22:35;11.74;81.37
74081;SHT31;62438;52.228;6.864;2023-03-24T08:24:36;11.62;81.52
74081;SHT31;62438;52.228;6.864;2023-03-24T08:26:36;11.58;81.68
74081;SHT31;62438;52.228;6.864;2023-03-24T08:28:37;11.47;82.05
74081;SHT31;62438;52.228;6.864;2023-03-24T08:30:37;11.32;81.67
74081;SHT31;62438;52.228;6.864;2023-03-24T08:32:43;11.50;81.59
74081;SHT31;62438;52.228;6.864;2023-03-24T08:34:44;11.65;81.09
74081;SHT31;62438;52.228;6.864;2023-03-24T08:36:44;11.69;81.06
74081;SHT31;62438;52.228;6.864;2023-03-24T08:38:45;12.20;79.15
74081;SHT31;62438;52.228;6.864;2023-03-24T08:40:47;12.68;77.87
74081;SHT31;62438;52.228;6.864;2023-03-24T08:42:54;12.89;76.86
74081;SHT31;62438;52.228;6.864;2023-03-24T08:44:54;12.92;76.57
74081;SHT31;62438;52.228;6.864;2023-03-24T08:46:55;12.91;75.99
74081;SHT31;62438;52.228;6.864;2023-03-24T08:48:57;12.88;76.19
74081;SHT31;62438;52.228;6.864;2023-03-24T08:50:57;12.88;76.06
74081;SHT31;62438;52.228;6.864;2023-03-24T08:52:58;13.12;75.08
74081;SHT31;62438;52.228;6.864;2023-03-24T08:54:58;13.23;74.58
74081;SHT31;62438;52.228;6.864;2023-03-24T08:56:59;13.38;73.35
74081;SHT31;62438;52.228;6.864;2023-03-24T08:58:59;13.18;74.60
74081;SHT31;62438;52.228;6.864;2023-03-24T09:01:00;12.81;74.82
74081;SHT31;62438;52.228;6.864;2023-03-24T09:03:01;12.64;76.12
74081;SHT31;62438;52.228;6.864;2023-03-24T09:05:01;12.60;74.94
74081;SHT31;62438;52.228;6.864;2023-03-24T09:07:02;12.78;76.14
74081;SHT31;62438;52.228;6.864;2023-03-24T09:09:03;12.60;75.36
74081;SHT31;62438;52.228;6.864;2023-03-24T09:11:04;12.38;76.04
74081;SHT31;62438;52.228;6.864;2023-03-24T09:13:05;12.29;75.32
74081;SHT31;62438;52.228;6.864;2023-03-24T09:15:07;12.44;75.92
74081;SHT31;62438;52.228;6.864;2023-03-24T09:17:08;12.84;74.47
74081;SHT31;62438;52.228;6.864;2023-03-24T09:19:08;12.78;74.80
74081;SHT31;62438;52.228;6.864;2023-03-24T09:21:09;13.15;73.53
74081;SHT31;62438;52.228;6.864;2023-03-24T09:23:10;12.68;74.60
74081;SHT31;62438;52.228;6.864;2023-03-24T09:25:14;13.09;74.10
74081;SHT31;62438;52.228;6.864;2023-03-24T09:27:15;12.78;74.92
74081;SHT31;62438;52.228;6.864;2023-03-24T09:29:19;12.91;74.84
74081;SHT31;62438;52.228;6.864;2023-03-24T09:31:19;12.68;75.67
74081;SHT31;62438;52.228;6.864;2023-03-24T09:33:20;12.38;75.37
74081;SHT31;62438;52.228;6.864;2023-03-24T09:35:20;12.37;75.87
74081;SHT31;62438;52.228;6.864;2023-03-24T09:37:21;12.36;76.02
74081;SHT31;62438;52.228;6.864;2023-03-24T09:39:21;12.48;76.20
74081;SHT31;62438;52.228;6.864;2023-03-24T09:41:27;12.69;75.32
74081;SHT31;62438;52.228;6.864;2023-03-24T09:45:56;12.82;74.84
74081;SHT31;62438;52.228;6.864;2023-03-24T09:50:16;12.92;73.72
74081;SHT31;62438;52.228;6.864;2023-03-24T09:52:24;12.95;73.82
74081;SHT31;62438;52.228;6.864;2023-03-24T09:54:31;12.87;73.88
74081;SHT31;62438;52.228;6.864;2023-03-24T09:56:37;12.63;74.36
74081;SHT31;62438;52.228;6.864;2023-03-24T09:58:38;12.51;75.38
74081;SHT31;62438;52.228;6.864;2023-03-24T10:00:41;12.78;74.99
74081;SHT31;62438;52.228;6.864;2023-03-24T10:02:42;13.02;73.95
74081;SHT31;62438;52.228;6.864;2023-03-24T10:04:43;12.98;74.28
74081;SHT31;62438;52.228;6.864;2023-03-24T10:06:44;12.84;74.62
74081;SHT31;62438;52.228;6.864;2023-03-24T10:11:26;12.57;75.77
74081;SHT31;62438;52.228;6.864;2023-03-24T10:16:05;12.38;77.27
74081;SHT31;62438;52.228;6.864;2023-03-24T10:20:34;12.34;75.81
74081;SHT31;62438;52.228;6.864;2023-03-24T10:23:18;12.37;76.61
74081;SHT31;62438;52.228;6.864;2023-03-24T10:25:42;12.36;76.52
74081;SHT31;62438;52.228;6.864;2023-03-24T10:27:47;12.47;74.95
74081;SHT31;62438;52.228;6.864;2023-03-24T10:29:53;12.47;74.94
74081;SHT31;62438;52.228;6.864;2023-03-24T10:33:59;13.63;71.35
74081;SHT31;62438;52.228;6.864;2023-03-24T10:36:04;13.97;69.97
74081;SHT31;62438;52.228;6.864;2023-03-24T10:38:20;14.40;69.67
74081;SHT31;62438;52.228;6.864;2023-03-24T10:40:25;14.55;68.31
74081;SHT31;62438;52.228;6.864;2023-03-24T10:42:32;14.75;68.02
74081;SHT31;62438;52.228;6.864;2023-03-24T10:44:33;14.79;66.85
74081;SHT31;62438;52.228;6.864;2023-03-24T10:46:37;14.53;67.21
74081;SHT31;62438;52.228;6.864;2023-03-24T10:48:46;14.79;66.35
74081;SHT31;62438;52.228;6.864;2023-03-24T10:50:46;14.93;66.57
74081;SHT31;62438;52.228;6.864;2023-03-24T10:52:48;14.40;67.23
74081;SHT31;62438;52.228;6.864;2023-03-24T10:54:58;14.63;66.48
74081;SHT31;62438;52.228;6.864;2023-03-24T10:57:04;15.56;65.03
74081;SHT31;62438;52.228;6.864;2023-03-24T11:01:28;15.61;63.65
74081;SHT31;62438;52.228;6.864;2023-03-24T11:03:36;15.07;64.94
74081;SHT31;62438;52.228;6.864;2023-03-24T11:05:38;14.81;65.20
74081;SHT31;62438;52.228;6.864;2023-03-24T11:07:45;15.44;65.05
74081;SHT31;62438;52.228;6.864;2023-03-24T11:12:26;14.84;65.45
74081;SHT31;62438;52.228;6.864;2023-03-24T11:14:27;14.96;65.76
74081;SHT31;62438;52.228;6.864;2023-03-24T11:16:38;14.49;66.74
74081;SHT31;62438;52.228;6.864;2023-03-24T11:19:00;14.42;68.43
74081;SHT31;62438;52.228;6.864;2023-03-24T11:21:02;14.65;67.17
74081;SHT31;62438;52.228;6.864;2023-03-24T11:23:19;15.52;64.83
74081;SHT31;62438;52.228;6.864;2023-03-24T11:25:24;16.54;60.78
74081;SHT31;62438;52.228;6.864;2023-03-24T11:27:26;16.35;60.74
74081;SHT31;62438;52.228;6.864;2023-03-24T11:29:31;16.45;61.44
74081;SHT31;62438;52.228;6.864;2023-03-24T11:31:34;16.68;60.15
74081;SHT31;62438;52.228;6.864;2023-03-24T11:33:44;16.40;59.46
74081;SHT31;62438;52.228;6.864;2023-03-24T11:35:47;16.35;61.05
74081;SHT31;62438;52.228;6.864;2023-03-24T11:37:48;16.24;60.27
74081;SHT31;62438;52.228;6.864;2023-03-24T11:40:24;16.20;60.76
74081;SHT31;62438;52.228;6.864;2023-03-24T11:42:26;16.18;61.58
74081;SHT31;62438;52.228;6.864;2023-03-24T11:44:41;15.79;60.73
74081;SHT31;62438;52.228;6.864;2023-03-24T11:46:44;15.96;60.30
74081;SHT31;62438;52.228;6.864;2023-03-24T11:48:54;16.38;58.92
74081;SHT31;62438;52.228;6.864;2023-03-24T11:50:57;16.12;57.96
74081;SHT31;62438;52.228;6.864;2023-03-24T11:53:03;15.37;58.90
74081;SHT31;62438;52.228;6.864;2023-03-24T11:55:14;14.49;60.94
74081;SHT31;62438;52.228;6.864;2023-03-24T11:57:35;14.14;62.02
74081;SHT31;62438;52.228;6.864;2023-03-24T11:59:53;14.08;63.77
74081;SHT31;62438;52.228;6.864;2023-03-24T12:04:28;13.66;64.01
74081;SHT31;62438;52.228;6.864;2023-03-24T12:13:14;12.20;75.86
74081;SHT31;62438;52.228;6.864;2023-03-24T12:15:44;11.62;79.90
74081;SHT31;62438;52.228;6.864;2023-03-24T12:18:18;11.35;81.41
74081;SHT31;62438;52.228;6.864;2023-03-24T12:20:29;11.28;83.89
74081;SHT31;62438;52.228;6.864;2023-03-24T12:22:46;11.45;83.33
74081;SHT31;62438;52.228;6.864;2023-03-24T12:27:00;11.81;81.48
74081;SHT31;62438;52.228;6.864;2023-03-24T12:35:55;12.07;81.59
74081;SHT31;62438;52.228;6.864;2023-03-24T12:42:41;13.13;78.54
74081;SHT31;62438;52.228;6.864;2023-03-24T12:53:06;12.95;78.62
74081;SHT31;62438;52.228;6.864;2023-03-24T12:55:13;12.94;79.11
74081;SHT31;62438;52.228;6.864;2023-03-24T12:57:18;12.75;79.28
74081;SHT31;62438;52.228;6.864;2023-03-24T12:59:31;12.55;78.87
74081;SHT31;62438;52.228;6.864;2023-03-24T13:01:44;12.33;77.60
74081;SHT31;62438;52.228;6.864;2023-03-24T13:03:47;12.19;77.31
74081;SHT31;62438;52.228;6.864;2023-03-24T13:05:53;12.00;79.32
74081;SHT31;62438;52.228;6.864;2023-03-24T13:07:58;11.68;80.49
74081;SHT31;62438;52.228;6.864;2023-03-24T13:10:14;11.37;82.58
74081;SHT31;62438;52.228;6.864;2023-03-24T13:12:22;11.13;86.10
74081;SHT31;62438;52.228;6.864;2023-03-24T13:14:30;10.84;89.31
74081;SHT31;62438;52.228;6.864;2023-03-24T13:16:33;10.65;89.63
74081;SHT31;62438;52.228;6.864;2023-03-24T13:18:40;10.34;91.41
74081;SHT31;62438;52.228;6.864;2023-03-24T13:21:03;10.42;91.19
74081;SHT31;62438;52.228;6.864;2023-03-24T13:27:59;10.56;90.25
74081;SHT31;62438;52.228;6.864;2023-03-24T13:40:37;10.35;90.58
74081;SHT31;62438;52.228;6.864;2023-03-24T13:42:44;10.32;90.26
74081;SHT31;62438;52.228;6.864;2023-03-24T13:44:47;10.28;90.74
74081;SHT31;62438;52.228;6.864;2023-03-24T13:47:02;10.28;91.60
74081;SHT31;62438;52.228;6.864;2023-03-24T13:49:05;10.28;91.43
74081;SHT31;62438;52.228;6.864;2023-03-24T13:51:17;10.42;91.16
74081;SHT31;62438;52.228;6.864;2023-03-24T13:53:29;10.93;91.94
74081;SHT31;62438;52.228;6.864;2023-03-24T13:55:35;11.85;88.63
74081;SHT31;62438;52.228;6.864;2023-03-24T13:57:42;12.43;86.22
74081;SHT31;62438;52.228;6.864;2023-03-24T14:00:20;12.55;86.48
74081;SHT31;62438;52.228;6.864;2023-03-24T14:04:51;11.45;87.17
74081;SHT31;62438;52.228;6.864;2023-03-24T14:09:33;11.21;88.33
74081;SHT31;62438;52.228;6.864;2023-03-24T14:13:45;11.24;88.85
74081;SHT31;62438;52.228;6.864;2023-03-24T14:17:53;11.13;87.62
74081;SHT31;62438;52.228;6.864;2023-03-24T14:22:11;11.09;88.47
74081;SHT31;62438;52.228;6.864;2023-03-24T14:24:22;11.07;89.29
74081;SHT31;62438;52.228;6.864;2023-03-24T14:28:31;11.07;89.99
74081;SHT31;62438;52.228;6.864;2023-03-24T14:30:32;11.04;90.07
74081;SHT31;62438;52.228;6.864;2023-03-24T14:32:45;11.04;89.66
74081;SHT31;62438;52.228;6.864;2023-03-24T14:34:55;11.00;90.14
74081;SHT31;62438;52.228;6.864;2023-03-24T14:36:59;10.99;90.95
74081;SHT31;62438;52.228;6.864;2023-03-24T14:39:11;10.96;91.41
74081;SHT31;62438;52.228;6.864;2023-03-24T14:41:15;10.88;90.97
74081;SHT31;62438;52.228;6.864;2023-03-24T14:45:50;10.75;91.82
74081;SHT31;62438;52.228;6.864;2023-03-24T14:47:57;10.73;91.90
74081;SHT31;62438;52.228;6.864;2023-03-24T14:50:01;10.69;91.62
74081;SHT31;62438;52.228;6.864;2023-03-24T14:52:17;10.63;91.89
74081;SHT31;62438;52.228;6.864;2023-03-24T14:56:33;10.42;93.85
74081;SHT31;62438;52.228;6.864;2023-03-24T14:58:36;10.35;94.68
74081;SHT31;62438;52.228;6.864;2023-03-24T15:00:42;10.34;94.67
74081;SHT31;62438;52.228;6.864;2023-03-24T15:02:45;10.32;95.59
74081;SHT31;62438;52.228;6.864;2023-03-24T15:07:39;10.31;93.43
74081;SHT31;62438;52.228;6.864;2023-03-24T15:09:47;10.25;92.75
74081;SHT31;62438;52.228;6.864;2023-03-24T15:11:47;10.22;92.29
74081;SHT31;62438;52.228;6.864;2023-03-24T15:13:52;10.20;92.67
74081;SHT31;62438;52.228;6.864;2023-03-24T15:15:53;10.21;92.84
74081;SHT31;62438;52.228;6.864;2023-03-24T15:17:54;10.25;93.50
74081;SHT31;62438;52.228;6.864;2023-03-24T15:19:55;10.30;94.59
74081;SHT31;62438;52.228;6.864;2023-03-24T15:21:58;10.27;93.77
74081;SHT31;62438;52.228;6.864;2023-03-24T15:24:00;10.32;93.60
74081;SHT31;62438;52.228;6.864;2023-03-24T15:26:01;10.25;93.57
74081;SHT31;62438;52.228;6.864;2023-03-24T15:28:11;10.28;93.52
74081;SHT31;62438;52.228;6.864;2023-03-24T15:30:17;10.31;93.12
74081;SHT31;62438;52.228;6.864;2023-03-24T15:32:20;10.37;92.87
74081;SHT31;62438;52.228;6.864;2023-03-24T15:36:38;10.68;92.44
74081;SHT31;62438;52.228;6.864;2023-03-24T15:38:44;10.80;91.64
74081;SHT31;62438;52.228;6.864;2023-03-24T15:40:56;10.79;90.72
74081;SHT31;62438;52.228;6.864;2023-03-24T15:43:01;10.86;89.15
74081;SHT31;62438;52.228;6.864;2023-03-24T15:45:24;11.01;90.13
74081;SHT31;62438;52.228;6.864;2023-03-24T15:47:28;10.92;90.08